KATL Airport Information

Runway Information
Runway 08L Length 9000 ft width 150 ft
Elevation 1015 ft Threshold 0 ft Heading 90
Runway 26R Length 9000 ft Width 150 ft
Elevation 990 ft Threshold 0 ft Heading 270
Runway 08R Length 10000 ft width 150 ft
Elevation 1024 ft Threshold 0 ft Heading 90
Runway 26L Length 10000 ft Width 150 ft
Elevation 995 ft Threshold 0 ft Heading 270
Runway 09L Length 11890 ft width 150 ft
Elevation 1019 ft Threshold 0 ft Heading 90
Runway 27R Length 11890 ft Width 150 ft
Elevation 978 ft Threshold 0 ft Heading 270
Runway 09R Length 9001 ft width 150 ft
Elevation 1026 ft Threshold 0 ft Heading 90
Runway 27L Length 9001 ft Width 150 ft
Elevation 985 ft Threshold 0 ft Heading 270
Runway 10 Length 9000 ft width 150 ft
Elevation 1000 ft Threshold 0 ft Heading 90
Runway 28 Length 9000 ft Width 150 ft
Elevation 998 ft Threshold 0 ft Heading 270
Airport Frequencies
Type APP Name ATLANTA AP Frequency 118.35 MHZ
Type ATIS Name ATIS Frequency 119.65 MHZ
Type CLD Name CLNC DEL Frequency 118.1 MHZ
Type DEP Name ATLANTA DE Frequency 125 MHZ
Type GND Name GND Frequency 121.65 MHZ
Type RDO Name MACON RDO Frequency 116.9 MHZ
Type SFA Name SFA Frequency 30.697 MHZ
Type TWR Name ATLANTA TW Frequency 119.1 MHZ
Type UNIC Name UNICOM Frequency 122.95 MHZ
Airport Navaids
Type NDB Name Catta Frequency 375 KHZ
Type VORTAC Name Atlanta Frequency 116900 KHZ
Type NDB Name Redan Frequency 266 KHZ
Airport Weather Information & NOTAM
ADDS - METARS form results

(1120 UTC 20 April 2019)
Data provider http://aviationweather.gov/metar/data/
 
METAR text: KATL 201118Z 25011KT 7SM -RA FEW009 SCT014 OVC035 06/04 A2968 RMK AO2 P0001 T00610039
Conditions at: KATL (ATLANTA , GA, US) observed 1118 UTC 20 April 2019
Temperature: 6.1°C (43°F)
Dewpoint: 3.9°C (39°F) [RH = 86%]
Pressure (altimeter): 29.68 inches Hg (1005.2 mb)
Winds: from the WSW (250 degrees) at 13 MPH (11 knots; 5.7 m/s)
Visibility: 7 miles (11 km)
Ceiling: 3500 feet AGL
Clouds: few clouds at 900 feet AGL
scattered clouds at 1400 feet AGL
overcast cloud deck at 3500 feet AGL
Weather: -RA  (light rain)

METAR text: KATL 201105Z 25012G19KT 8SM -RA SCT012 BKN018 OVC031 07/04 A2967 RMK AO2 P0000 T00670039
Conditions at: KATL (ATLANTA , GA, US) observed 1105 UTC 20 April 2019
Temperature: 6.7°C (44°F)
Dewpoint: 3.9°C (39°F) [RH = 82%]
Pressure (altimeter): 29.67 inches Hg (1004.8 mb)
Winds: from the WSW (250 degrees) at 14 MPH (12 knots; 6.2 m/s)
gusting to 22 MPH (19 knots; 9.8 m/s)
Visibility: 8 miles (13 km)
Ceiling: 1800 feet AGL
Clouds: scattered clouds at 1200 feet AGL
broken clouds at 1800 feet AGL
overcast cloud deck at 3100 feet AGL
Weather: -RA  (light rain)

METAR text: KATL 201052Z 24008G18KT 8SM -RA BKN011 BKN019 OVC027 07/04 A2967 RMK AO2 RAB09 SLP045 CIG 009V014 P0001 T00670044
Conditions at: KATL (ATLANTA , GA, US) observed 1052 UTC 20 April 2019
Temperature: 6.7°C (44°F)
Dewpoint: 4.4°C (40°F) [RH = 85%]
Pressure (altimeter): 29.67 inches Hg (1004.8 mb)
[Sea-level pressure: 1004.5 mb]
Winds: from the WSW (240 degrees) at 9 MPH (8 knots; 4.1 m/s)
gusting to 21 MPH (18 knots; 9.3 m/s)
Visibility: 8 miles (13 km)
Ceiling: 1100 feet AGL
Clouds: broken clouds at 1100 feet AGL
broken clouds at 1900 feet AGL
overcast cloud deck at 2700 feet AGL
Weather: -RA  (light rain)

METAR text: KATL 201030Z 24013KT 7SM -RA FEW008 BKN012 OVC019 07/04 A2966 RMK AO2 RAB09 P0000 T00670044
Conditions at: KATL (ATLANTA , GA, US) observed 1030 UTC 20 April 2019
Temperature: 6.7°C (44°F)
Dewpoint: 4.4°C (40°F) [RH = 85%]
Pressure (altimeter): 29.66 inches Hg (1004.5 mb)
Winds: from the WSW (240 degrees) at 15 MPH (13 knots; 6.7 m/s)
Visibility: 7 miles (11 km)
Ceiling: 1200 feet AGL
Clouds: few clouds at 800 feet AGL
broken clouds at 1200 feet AGL
overcast cloud deck at 1900 feet AGL
Weather: -RA  (light rain)

Forecast for: KATL (ATLANTA , GA, US)
Text: KATL 201030Z 2011/2112 23008G16KT P6SM -SHRA FEW009 BKN016 OVC029
Forecast period: 1100 to 1400 UTC 20 April 2019
Forecast type: FROM: standard forecast or significant change
Winds: from the SW (230 degrees) at 9 MPH (8 knots; 4.1 m/s)
gusting to 18 MPH (16 knots; 8.2 m/s)
Visibility: 6 or more miles 10+ km)
Ceiling: 1600 feet AGL
Clouds: few clouds at 900 feet AGL
broken clouds at 1600 feet AGL
overcast cloud deck at 2900 feet AGL
Weather: -SHRA  (light rain showers)
Text: FM201400 25012G21KT P6SM BKN012 OVC025
Forecast period: 1400 to 1900 UTC 20 April 2019
Forecast type: FROM: standard forecast or significant change
Winds: from the WSW (250 degrees) at 14 MPH (12 knots; 6.2 m/s)
gusting to 24 MPH (21 knots; 10.8 m/s)
Visibility: 6 or more miles 10+ km)
Ceiling: 1200 feet AGL
Clouds: broken clouds at 1200 feet AGL
overcast cloud deck at 2500 feet AGL
Weather: no significant weather forecast for this period
Text: FM201900 27012KT 6SM BR BKN018 OVC030
Forecast period: 1900 UTC 20 April 2019 to 0000 UTC 21 April 2019
Forecast type: FROM: standard forecast or significant change
Winds: from the W (270 degrees) at 14 MPH (12 knots; 6.2 m/s)
Visibility: 6 miles (10 km)
Ceiling: 1800 feet AGL
Clouds: broken clouds at 1800 feet AGL
overcast cloud deck at 3000 feet AGL
Weather: BR  (mist)
Text: FM210000 28009KT P6SM OVC040
Forecast period: 0000 to 0300 UTC 21 April 2019
Forecast type: FROM: standard forecast or significant change
Winds: from the W (280 degrees) at 10 MPH (9 knots; 4.6 m/s)
Visibility: 6 or more miles 10+ km)
Ceiling: 4000 feet AGL
Clouds: overcast cloud deck at 4000 feet AGL
Weather: no significant weather forecast for this period
Text: FM210300 27006KT P6SM SCT090
Forecast period: 0300 to 1200 UTC 21 April 2019
Forecast type: FROM: standard forecast or significant change
Winds: from the W (270 degrees) at 7 MPH (6 knots; 3.1 m/s)
Visibility: 6 or more miles 10+ km)
Ceiling: at least 12,000 feet AGL
Clouds: scattered clouds at 9000 feet AGL
Weather: no significant weather forecast for this period